Time;durP1;ratioP1;P1;durP2;ratioP2;P2;SDS_P1;SDS_P2;PMS_P1;PMS_P2;Temp;Humidity;BMP_temperature;BMP_pressure;BME280_temperature;BME280_humidity;BME280_pressure;Samples;Min_cycle;Max_cycle;Signal;HPM_P1;HPM_P2
2022/07/26 00:02:06;;;;;;;0.03;0.03;;;17.60;99.90;;;;;;5038875;28;20049;-86
2022/07/26 00:04:32;;;;;;;0.20;0.20;;;17.60;99.90;;;;;;5056350;28;20043;-87
2022/07/26 00:06:58;;;;;;;0.30;0.30;;;17.60;99.90;;;;;;5040074;28;20040;-87
2022/07/26 00:09:23;;;;;;;0.00;0.00;;;17.60;99.90;;;;;;5073173;28;20040;-87
2022/07/26 00:11:49;;;;;;;0.10;0.08;;;17.60;99.90;;;;;;5040283;28;20364;-86
2022/07/26 00:14:15;;;;;;;0.10;0.10;;;17.60;99.90;;;;;;5035235;28;20068;-86
2022/07/26 00:16:41;;;;;;;0.00;0.00;;;17.70;99.90;;;;;;5036809;28;20087;-86
2022/07/26 00:19:07;;;;;;;0.10;0.10;;;17.70;99.90;;;;;;5036368;28;20551;-86
2022/07/26 00:21:35;;;;;;;0.00;0.00;;;17.70;99.90;;;;;;5036176;28;20102;-86
2022/07/26 00:24:03;;;;;;;0.00;0.00;;;17.80;99.90;;;;;;5019889;28;20515;-86
2022/07/26 00:26:28;;;;;;;0.00;0.00;;;17.80;99.90;;;;;;5036201;28;20052;-86
2022/07/26 00:28:54;;;;;;;0.10;0.10;;;17.90;99.90;;;;;;5036328;28;20053;-86
2022/07/26 00:31:20;;;;;;;0.10;0.10;;;17.90;99.90;;;;;;5036120;28;20436;-86
2022/07/26 00:33:46;;;;;;;0.35;0.35;;;18.00;99.90;;;;;;5036024;28;20041;-86
2022/07/26 00:36:12;;;;;;;0.10;0.10;;;18.00;99.90;;;;;;5019666;28;20052;-88
2022/07/26 00:38:38;;;;;;;0.73;0.73;;;18.10;99.90;;;;;;5036062;28;20475;-86
2022/07/26 00:41:04;;;;;;;0.65;0.65;;;18.10;99.90;;;;;;5019383;28;20106;-86
2022/07/26 00:43:30;;;;;;;0.00;0.00;;;18.20;99.90;;;;;;5036350;28;20573;-82
2022/07/26 00:45:56;;;;;;;0.10;0.10;;;18.20;99.90;;;;;;5035807;28;20128;-82
2022/07/26 00:48:22;;;;;;;0.65;0.65;;;18.20;99.90;;;;;;5036106;28;20037;-82
2022/07/26 00:50:48;;;;;;;0.30;0.30;;;18.10;99.90;;;;;;5035714;28;20043;-82
2022/07/26 00:53:14;;;;;;;0.08;0.08;;;18.10;99.90;;;;;;5036076;28;20047;-82
2022/07/26 00:55:40;;;;;;;0.10;0.10;;;18.10;99.90;;;;;;5035966;28;20471;-82
2022/07/26 00:58:05;;;;;;;0.57;0.40;;;18.00;99.90;;;;;;5035607;28;20053;-82
2022/07/26 01:00:32;;;;;;;0.00;0.00;;;17.90;99.90;;;;;;5039618;28;20115;-87
2022/07/26 01:02:59;;;;;;;0.00;0.00;;;17.90;99.90;;;;;;5055493;28;20482;-87
2022/07/26 01:05:26;;;;;;;0.00;0.00;;;17.90;99.90;;;;;;5055425;28;20048;-87
2022/07/26 01:07:52;;;;;;;0.32;0.22;;;17.90;99.90;;;;;;5072247;28;20044;-87
2022/07/26 01:10:18;;;;;;;0.10;0.10;;;18.00;99.90;;;;;;5055451;28;20067;-87
2022/07/26 01:12:44;;;;;;;0.08;0.08;;;18.00;99.90;;;;;;5054784;28;20076;-87
2022/07/26 01:15:12;;;;;;;0.30;0.30;;;18.00;99.90;;;;;;5043738;28;20494;-87
2022/07/26 01:17:39;;;;;;;0.35;0.30;;;18.00;99.90;;;;;;5035343;28;20049;-82
2022/07/26 01:20:07;;;;;;;0.38;0.35;;;18.00;99.90;;;;;;5035696;28;20391;-82
2022/07/26 01:22:33;;;;;;;0.10;0.10;;;17.90;99.90;;;;;;5035239;28;20048;-82
2022/07/26 01:24:59;;;;;;;0.10;0.10;;;17.90;99.90;;;;;;5018827;28;20049;-82
2022/07/26 01:27:25;;;;;;;0.22;0.22;;;17.90;99.90;;;;;;5019258;28;20076;-82
2022/07/26 01:29:51;;;;;;;0.30;0.30;;;17.90;99.90;;;;;;5015601;28;20045;-82
2022/07/26 01:32:17;;;;;;;0.17;0.17;;;17.90;99.90;;;;;;5031890;28;20408;-82
2022/07/26 01:34:44;;;;;;;0.00;0.00;;;17.90;99.90;;;;;;5015910;28;20048;-83
2022/07/26 01:37:09;;;;;;;0.17;0.17;;;18.00;99.90;;;;;;5015392;28;20045;-83
2022/07/26 01:39:35;;;;;;;0.05;0.05;;;18.00;99.90;;;;;;5032004;28;20052;-83
2022/07/26 01:42:01;;;;;;;0.17;0.17;;;18.00;99.90;;;;;;5031848;28;20059;-83
2022/07/26 01:44:27;;;;;;;0.00;0.00;;;18.00;99.90;;;;;;5015628;28;20128;-83
2022/07/26 01:46:53;;;;;;;0.10;0.10;;;18.00;99.90;;;;;;5031693;28;20484;-83
2022/07/26 01:49:18;;;;;;;0.10;0.10;;;18.10;99.90;;;;;;5015507;28;20038;-83
2022/07/26 01:51:44;;;;;;;0.10;0.10;;;18.00;99.90;;;;;;5031876;28;20044;-83
2022/07/26 01:54:10;;;;;;;0.08;0.08;;;17.90;99.90;;;;;;5015356;28;20037;-83
2022/07/26 01:56:35;;;;;;;0.38;0.38;;;17.90;99.90;;;;;;5021591;28;20083;-84
2022/07/26 01:59:02;;;;;;;0.00;0.00;;;17.80;99.90;;;;;;5035235;28;20076;-83
2022/07/26 02:01:27;;;;;;;0.00;0.00;;;17.80;99.90;;;;;;5017159;28;20041;-83
2022/07/26 02:03:53;;;;;;;0.00;0.00;;;17.70;99.90;;;;;;5035156;28;20094;-83
2022/07/26 02:06:19;;;;;;;0.05;0.05;;;17.70;99.90;;;;;;5034877;28;20487;-83
2022/07/26 02:08:45;;;;;;;0.00;0.00;;;17.70;99.90;;;;;;5035282;28;20047;-83
2022/07/26 02:11:10;;;;;;;0.00;0.00;;;17.80;99.90;;;;;;5018452;28;20498;-83
2022/07/26 02:13:39;;;;;;;0.05;0.05;;;17.80;99.90;;;;;;5034915;28;20098;-84
2022/07/26 02:16:08;;;;;;;0.13;0.13;;;17.80;99.90;;;;;;5022765;28;20037;-84
2022/07/26 02:18:36;;;;;;;0.20;0.20;;;17.70;99.90;;;;;;5035026;28;20041;-83
2022/07/26 02:21:04;;;;;;;0.03;0.03;;;17.50;99.90;;;;;;5035281;28;20438;-83
2022/07/26 02:23:30;;;;;;;0.00;0.00;;;17.50;99.90;;;;;;5036087;28;20049;-87
2022/07/26 02:25:56;;;;;;;0.00;0.00;;;17.30;99.90;;;;;;5034708;28;20176;-87
2022/07/26 02:28:22;;;;;;;0.00;0.00;;;17.20;99.90;;;;;;5018624;28;20049;-87
2022/07/26 02:30:48;;;;;;;0.00;0.00;;;17.20;99.90;;;;;;5002182;28;20052;-87
2022/07/26 02:33:14;;;;;;;0.10;0.10;;;17.20;99.90;;;;;;5018569;28;20155;-87
2022/07/26 02:35:41;;;;;;;0.00;0.00;;;17.20;99.90;;;;;;5018552;28;20084;-87
2022/07/26 02:38:08;;;;;;;0.00;0.00;;;;;;;;;;5018591;28;20050;-87
2022/07/26 02:40:35;;;;;;;0.10;0.10;;;17.10;99.90;;;;;;5034941;28;20587;-86
2022/07/26 02:43:01;;;;;;;0.15;0.15;;;17.10;99.90;;;;;;5018410;28;20057;-86
2022/07/26 02:45:27;;;;;;;0.03;0.03;;;17.10;99.90;;;;;;5018134;28;20042;-86
2022/07/26 02:47:54;;;;;;;0.52;0.30;;;17.00;99.90;;;;;;5018551;28;20037;-86
2022/07/26 02:50:23;;;;;;;0.10;0.10;;;17.00;99.90;;;;;;5018249;28;20045;-86
2022/07/26 02:52:49;;;;;;;0.00;0.00;;;17.00;99.90;;;;;;5018282;28;20033;-86
2022/07/26 02:55:17;;;;;;;0.10;0.10;;;16.90;99.90;;;;;;5018195;28;20479;-86
2022/07/26 02:57:44;;;;;;;0.40;0.40;;;16.90;99.90;;;;;;5033659;28;20391;-83
2022/07/26 03:00:11;;;;;;;0.10;0.10;;;16.90;99.90;;;;;;5019786;28;20044;-83
2022/07/26 03:02:37;;;;;;;0.75;0.75;;;16.90;99.90;;;;;;5021629;28;20052;-83
2022/07/26 03:05:05;;;;;;;0.65;0.40;;;16.90;99.90;;;;;;5037295;28;20145;-83
2022/07/26 03:07:30;;;;;;;0.10;0.10;;;16.90;99.90;;;;;;5037681;28;20115;-83
2022/07/26 03:09:57;;;;;;;0.00;0.00;;;16.80;99.90;;;;;;5021518;28;20124;-82
2022/07/26 03:12:22;;;;;;;0.00;0.00;;;16.80;99.90;;;;;;5037731;28;20047;-83
2022/07/26 03:14:48;;;;;;;0.00;0.00;;;16.70;99.90;;;;;;5046865;28;20406;-86
2022/07/26 03:17:14;;;;;;;0.00;0.00;;;16.70;99.90;;;;;;5057417;28;20041;-86
2022/07/26 03:19:40;;;;;;;0.00;0.00;;;16.60;99.90;;;;;;5057867;28;20044;-86
2022/07/26 03:22:06;;;;;;;0.45;0.43;;;16.60;99.90;;;;;;5057316;28;20055;-85
2022/07/26 03:24:31;;;;;;;0.05;0.05;;;16.60;99.90;;;;;;5057605;28;20041;-85
2022/07/26 03:26:57;;;;;;;0.10;0.10;;;16.60;99.90;;;;;;5044977;28;20501;-86
2022/07/26 03:29:23;;;;;;;0.00;0.00;;;16.60;99.90;;;;;;5022973;28;20054;-85
2022/07/26 03:31:48;;;;;;;0.00;0.00;;;16.60;99.90;;;;;;5014522;28;20437;-86
2022/07/26 03:34:14;;;;;;;0.00;0.00;;;16.60;99.90;;;;;;5014505;28;20049;-87
2022/07/26 03:36:42;;;;;;;0.00;0.00;;;16.60;99.90;;;;;;5013726;28;20478;-87
2022/07/26 03:39:08;;;;;;;0.00;0.00;;;16.60;99.90;;;;;;5014086;28;20048;-87
2022/07/26 03:41:34;;;;;;;0.00;0.00;;;16.60;99.90;;;;;;5030473;28;20042;-87
2022/07/26 03:44:00;;;;;;;0.00;0.00;;;16.60;99.90;;;;;;4997745;28;20233;-86
2022/07/26 03:46:26;;;;;;;0.10;0.10;;;16.60;99.90;;;;;;5013837;28;20046;-86
2022/07/26 03:48:51;;;;;;;0.10;0.10;;;16.50;99.90;;;;;;4981738;28;20559;-86
2022/07/26 03:51:17;;;;;;;0.00;0.00;;;16.50;99.90;;;;;;5013757;28;20076;-86
2022/07/26 03:53:43;;;;;;;0.00;0.00;;;16.50;99.90;;;;;;4997787;28;20133;-87
2022/07/26 03:59:11;;;;;;;0.00;0.00;;;16.50;99.90;;;;;;4957903;28;20054;-86
2022/07/26 04:01:41;;;;;;;0.03;0.03;;;16.40;99.90;;;;;;4984404;28;20049;-86
2022/07/26 04:04:13;;;;;;;0.00;0.00;;;16.30;99.90;;;;;;4997338;28;20108;-81
2022/07/26 04:06:40;;;;;;;0.00;0.00;;;16.20;99.90;;;;;;5013432;28;20054;-81
2022/07/26 04:09:06;;;;;;;1.05;0.98;;;16.20;99.90;;;;;;5013584;28;20045;-81
2022/07/26 04:11:33;;;;;;;0.03;0.03;;;16.20;99.90;;;;;;5013409;28;20137;-81
2022/07/26 04:13:59;;;;;;;0.00;0.00;;;16.30;99.90;;;;;;5015496;28;20511;-81
2022/07/26 04:16:25;;;;;;;0.00;0.00;;;16.40;99.90;;;;;;5033071;28;20041;-81
2022/07/26 04:18:51;;;;;;;0.10;0.10;;;16.40;99.90;;;;;;5033100;28;20048;-81
2022/07/26 04:21:17;;;;;;;0.03;0.03;;;16.50;99.90;;;;;;5033222;28;20103;-86
2022/07/26 04:23:43;;;;;;;0.03;0.03;;;16.60;99.90;;;;;;5033330;28;20068;-86
2022/07/26 04:26:08;;;;;;;0.00;0.00;;;16.60;99.90;;;;;;5027436;28;20053;-86
2022/07/26 04:28:34;;;;;;;0.00;0.00;;;16.60;99.90;;;;;;5013059;28;20054;-86
2022/07/26 04:31:00;;;;;;;0.05;0.05;;;16.70;99.90;;;;;;5013370;28;20030;-86
2022/07/26 04:33:26;;;;;;;0.10;0.10;;;16.70;99.90;;;;;;5013129;28;20230;-86
2022/07/26 04:35:52;;;;;;;0.38;0.25;;;16.70;99.90;;;;;;5013153;28;20515;-86
2022/07/26 04:38:18;;;;;;;0.08;0.08;;;16.70;99.90;;;;;;5013151;28;20400;-81
2022/07/26 04:40:44;;;;;;;0.00;0.00;;;16.70;99.90;;;;;;5012940;28;20046;-81
2022/07/26 04:43:10;;;;;;;0.00;0.00;;;16.60;99.90;;;;;;5013061;28;20104;-81
2022/07/26 04:45:36;;;;;;;0.00;0.00;;;16.60;99.90;;;;;;5047219;28;20037;-81
2022/07/26 04:48:02;;;;;;;0.10;0.10;;;16.60;99.90;;;;;;5031953;28;20534;-81
2022/07/26 04:50:28;;;;;;;0.05;0.05;;;16.60;99.90;;;;;;5032398;28;20038;-81
2022/07/26 04:52:54;;;;;;;0.77;0.77;;;16.70;99.90;;;;;;5032780;28;20041;-81
2022/07/26 04:55:20;;;;;;;0.08;0.08;;;16.70;99.90;;;;;;5032496;28;20079;-86
2022/07/26 04:57:46;;;;;;;0.15;0.15;;;16.60;99.90;;;;;;5000266;28;20048;-86
2022/07/26 05:00:14;;;;;;;0.10;0.10;;;16.70;99.90;;;;;;4995757;28;20045;-86
2022/07/26 05:02:39;;;;;;;0.00;0.00;;;16.70;99.90;;;;;;5014764;28;20054;-86
2022/07/26 05:05:06;;;;;;;0.00;0.00;;;16.70;99.90;;;;;;5015499;28;20060;-85
2022/07/26 05:07:42;;;;;;;0.00;0.00;;;16.70;99.90;;;;;;5032292;28;20080;-86
2022/07/26 05:10:09;;;;;;;0.10;0.10;;;16.70;99.90;;;;;;5032674;28;20124;-81
2022/07/26 05:12:35;;;;;;;0.00;0.00;;;16.80;99.90;;;;;;5032474;28;20434;-81
2022/07/26 05:15:00;;;;;;;0.00;0.00;;;16.80;99.90;;;;;;5021686;28;20041;-81
2022/07/26 05:17:26;;;;;;;0.00;0.00;;;16.90;99.90;;;;;;5012570;28;20049;-81
2022/07/26 05:19:52;;;;;;;0.00;0.00;;;16.90;99.90;;;;;;5012424;28;20042;-81
2022/07/26 05:22:18;;;;;;;0.32;0.32;;;17.00;99.90;;;;;;5012384;28;20077;-81
2022/07/26 05:24:44;;;;;;;0.10;0.10;;;17.10;99.90;;;;;;4996237;28;20227;-81
2022/07/26 05:27:09;;;;;;;0.00;0.00;;;17.20;99.90;;;;;;5012265;28;20038;-86
2022/07/26 05:29:35;;;;;;;0.00;0.00;;;17.20;99.90;;;;;;5012249;28;20389;-86
2022/07/26 05:32:01;;;;;;;0.00;0.00;;;17.30;99.90;;;;;;5012185;28;20038;-87
2022/07/26 05:34:26;;;;;;;2.55;0.28;;;17.40;99.90;;;;;;5012067;28;20053;-86
2022/07/26 05:36:52;;;;;;;6.28;0.22;;;17.40;99.90;;;;;;5012244;28;20080;-86
2022/07/26 05:39:18;;;;;;;0.60;0.57;;;17.40;99.90;;;;;;5012554;28;20038;-86
2022/07/26 05:41:44;;;;;;;0.30;0.25;;;17.40;99.90;;;;;;5012145;28;20514;-86
2022/07/26 05:44:09;;;;;;;3.63;0.20;;;17.40;99.90;;;;;;4995919;28;20117;-83
2022/07/26 05:46:39;;;;;;;0.00;0.00;;;17.40;99.90;;;;;;5011980;28;20403;-82
2022/07/26 05:49:05;;;;;;;0.00;0.00;;;17.40;99.90;;;;;;5012136;28;20046;-83
2022/07/26 05:51:31;;;;;;;0.20;0.20;;;17.40;99.90;;;;;;5012309;28;20030;-83
2022/07/26 05:53:57;;;;;;;0.00;0.00;;;17.40;99.90;;;;;;5028875;28;20038;-83
2022/07/26 05:56:24;;;;;;;0.10;0.10;;;17.40;99.90;;;;;;5011915;28;20431;-83
2022/07/26 05:58:49;;;;;;;0.00;0.00;;;17.40;99.90;;;;;;5014077;28;20134;-83
2022/07/26 06:01:15;;;;;;;0.05;0.05;;;17.40;99.90;;;;;;5022446;28;20178;-86
2022/07/26 06:03:41;;;;;;;0.00;0.00;;;17.50;99.90;;;;;;5035706;28;20060;-86
2022/07/26 06:06:07;;;;;;;0.00;0.00;;;17.50;99.90;;;;;;5019104;28;20099;-87
2022/07/26 06:08:33;;;;;;;0.00;0.00;;;17.60;99.90;;;;;;5035605;28;20400;-86
2022/07/26 06:10:59;;;;;;;0.20;0.20;;;17.60;99.90;;;;;;5035580;28;20069;-86
2022/07/26 06:13:24;;;;;;;1.95;1.67;;;17.90;99.90;;;;;;5018987;28;20033;-87
2022/07/26 06:15:51;;;;;;;0.00;0.00;;;18.20;99.90;;;;;;5001467;28;20053;-87
2022/07/26 06:18:16;;;;;;;0.10;0.10;;;18.70;99.90;;;;;;5015634;28;20049;-82
2022/07/26 06:20:44;;;;;;;0.03;0.03;;;18.90;99.90;;;;;;5015638;28;20100;-82
2022/07/26 06:23:10;;;;;;;0.00;0.00;;;18.80;99.90;;;;;;5015796;28;20465;-82
2022/07/26 06:25:36;;;;;;;0.00;0.00;;;18.60;99.90;;;;;;5015286;28;20052;-82
2022/07/26 06:28:03;;;;;;;0.08;0.08;;;18.30;99.90;;;;;;4999455;28;20124;-81
2022/07/26 06:30:29;;;;;;;1.02;0.63;;;18.00;99.90;;;;;;5059269;22;20176;-87
2022/07/26 06:32:55;;;;;;;0.00;0.00;;;17.80;99.90;;;;;;5018671;28;20092;-87
2022/07/26 06:35:22;;;;;;;0.45;0.38;;;17.60;99.90;;;;;;5035178;28;20045;-81
2022/07/26 06:37:48;;;;;;;0.00;0.00;;;17.70;99.90;;;;;;5035109;28;20041;-81
2022/07/26 06:40:14;;;;;;;0.10;0.10;;;17.80;99.90;;;;;;5035190;28;20064;-81
2022/07/26 06:42:40;;;;;;;0.00;0.00;;;17.90;99.90;;;;;;5018469;28;20419;-81
2022/07/26 06:45:06;;;;;;;0.05;0.05;;;17.90;99.90;;;;;;5034810;28;20041;-81
2022/07/26 06:47:31;;;;;;;0.00;0.00;;;17.90;99.90;;;;;;5034709;28;20033;-81
2022/07/26 06:49:57;;;;;;;0.00;0.00;;;18.00;99.90;;;;;;5034833;28;20048;-82
2022/07/26 06:52:23;;;;;;;0.93;0.93;;;18.10;99.90;;;;;;5034685;28;20373;-82
2022/07/26 06:54:49;;;;;;;0.15;0.15;;;18.20;99.90;;;;;;5018539;28;20042;-83
2022/07/26 06:57:14;;;;;;;0.00;0.00;;;18.40;99.90;;;;;;5018044;28;20060;-83
2022/07/26 06:59:40;;;;;;;0.00;0.00;;;18.50;99.90;;;;;;5034856;28;20053;-83
2022/07/26 07:02:06;;;;;;;0.00;0.00;;;18.70;99.90;;;;;;5032882;28;20404;-83
2022/07/26 07:04:32;;;;;;;0.00;0.00;;;18.70;99.90;;;;;;5017681;28;20037;-83
2022/07/26 07:07:04;;;;;;;0.00;0.00;;;18.90;99.90;;;;;;5034398;28;20068;-81
2022/07/26 07:09:30;;;;;;;3.78;0.70;;;19.00;99.90;;;;;;5033810;28;20037;-81
2022/07/26 07:11:56;;;;;;;0.00;0.00;;;19.10;99.90;;;;;;5017934;28;20037;-82
2022/07/26 07:14:21;;;;;;;0.00;0.00;;;19.40;99.90;;;;;;5017620;28;20506;-81
2022/07/26 07:16:47;;;;;;;0.00;0.00;;;19.60;99.90;;;;;;5001483;28;20376;-82
2022/07/26 07:19:13;;;;;;;0.20;0.20;;;19.90;99.90;;;;;;5034505;28;20049;-82
2022/07/26 07:21:38;;;;;;;0.00;0.00;;;20.10;99.90;;;;;;5001440;28;20405;-82
2022/07/26 07:24:05;;;;;;;0.00;0.00;;;20.40;99.90;;;;;;5034496;28;20179;-83
2022/07/26 07:26:31;;;;;;;1.27;1.17;;;20.50;99.90;;;;;;5033903;28;20518;-83
2022/07/26 07:28:56;;;;;;;0.70;0.40;;;20.70;99.90;;;;;;5034436;28;20041;-84
2022/07/26 07:31:23;;;;;;;0.20;0.20;;;20.70;99.90;;;;;;5057220;28;20040;-84
2022/07/26 07:33:49;;;;;;;0.10;0.10;;;20.50;99.90;;;;;;5040713;28;20131;-83
2022/07/26 07:36:15;;;;;;;0.00;0.00;;;20.30;99.90;;;;;;5040660;28;20131;-83
2022/07/26 07:38:40;;;;;;;0.00;0.00;;;19.80;99.90;;;;;;5024133;28;20135;-83
2022/07/26 07:41:06;;;;;;;0.00;0.00;;;19.30;99.90;;;;;;5007681;28;20033;-83
2022/07/26 07:43:32;;;;;;;0.10;0.10;;;18.70;99.90;;;;;;5057297;28;20044;-83
2022/07/26 07:45:57;;;;;;;0.00;0.00;;;18.40;99.90;;;;;;5040371;28;20511;-83
2022/07/26 07:48:23;;;;;;;0.17;0.10;;;18.10;99.90;;;;;;5023917;28;20448;-83
2022/07/26 07:50:48;;;;;;;0.00;0.00;;;18.00;99.90;;;;;;5057034;28;20036;-83
2022/07/26 07:53:14;;;;;;;0.00;0.00;;;18.00;99.90;;;;;;5040358;28;20474;-82
2022/07/26 07:55:40;;;;;;;0.10;0.10;;;18.10;99.90;;;;;;5057030;28;20040;-82
2022/07/26 07:58:06;;;;;;;0.00;0.00;;;18.10;99.90;;;;;;5056816;28;20068;-86
2022/07/26 08:00:31;;;;;;;0.03;0.03;;;18.20;99.90;;;;;;5055445;28;20097;-86
2022/07/26 08:02:57;;;;;;;0.00;0.00;;;18.50;99.90;;;;;;5023747;28;20098;-86
2022/07/26 08:05:23;;;;;;;0.10;0.10;;;18.90;99.90;;;;;;5039665;28;20110;-86
2022/07/26 08:07:49;;;;;;;0.20;0.20;;;19.30;99.90;;;;;;5040231;28;20040;-86
2022/07/26 08:10:15;;;;;;;0.20;0.20;;;19.60;99.90;;;;;;5040228;28;20070;-86
2022/07/26 08:12:41;;;;;;;1.20;0.75;;;19.80;99.90;;;;;;5056344;28;20047;-88
2022/07/26 08:15:08;;;;;;;0.10;0.10;;;19.70;99.90;;;;;;5056351;28;20044;-87
2022/07/26 08:17:34;;;;;;;0.00;0.00;;;19.40;99.90;;;;;;5056331;28;20036;-87
2022/07/26 08:20:00;;;;;;;0.00;0.00;;;19.10;99.90;;;;;;5039725;28;20040;-87
2022/07/26 08:22:26;;;;;;;0.45;0.45;;;18.90;99.90;;;;;;5056232;28;20037;-86
2022/07/26 08:24:52;;;;;;;2.65;0.90;;;18.90;99.90;;;;;;5056081;28;20479;-87
2022/07/26 08:27:17;;;;;;;0.08;0.08;;;19.00;99.90;;;;;;5022919;28;20123;-87
2022/07/26 08:29:43;;;;;;;0.05;0.05;;;19.20;99.90;;;;;;5055912;28;20056;-87
2022/07/26 08:32:09;;;;;;;0.00;0.00;;;19.20;99.90;;;;;;5055991;28;20049;-87
2022/07/26 08:34:35;;;;;;;0.08;0.08;;;19.20;99.90;;;;;;5023074;28;20043;-87
2022/07/26 08:37:01;;;;;;;0.05;0.05;;;19.20;99.90;;;;;;5055942;28;20044;-86
2022/07/26 08:39:26;;;;;;;0.10;0.10;;;19.30;99.90;;;;;;5056353;28;20040;-86
2022/07/26 08:41:52;;;;;;;0.35;0.32;;;19.50;99.90;;;;;;5055801;28;20487;-87
2022/07/26 08:44:18;;;;;;;0.10;0.10;;;19.80;99.90;;;;;;5055794;28;20112;-87
2022/07/26 08:46:44;;;;;;;0.30;0.20;;;20.20;99.90;;;;;;5039548;28;20098;-87
2022/07/26 08:49:10;;;;;;;0.00;0.00;;;20.70;99.90;;;;;;5039286;28;20032;-87
2022/07/26 08:51:39;;;;;;;3.58;0.85;;;21.10;99.90;;;;;;5055907;28;20047;-87
2022/07/26 08:54:05;;;;;;;0.45;0.45;;;20.90;99.90;;;;;;5039210;28;20632;-87
2022/07/26 08:56:36;;;;;;;0.10;0.10;;;20.60;99.90;;;;;;5055744;28;20041;-86
2022/07/26 08:59:13;;;;;;;0.10;0.10;;;20.20;99.90;;;;;;5039089;28;20048;-86
2022/07/26 09:02:00;;;;;;;0.00;0.00;;;19.80;99.90;;;;;;5054209;28;20512;-87
2022/07/26 09:04:32;;;;;;;0.20;0.20;;;19.40;99.90;;;;;;5055498;28;20044;-86
2022/07/26 09:07:07;;;;;;;0.10;0.10;;;19.20;99.90;;;;;;5055647;28;20040;-86
2022/07/26 09:09:35;;;;;;;0.00;0.00;;;18.90;99.90;;;;;;5038993;28;20036;-86
2022/07/26 09:12:16;;;;;;;0.75;0.55;;;18.70;99.90;;;;;;5055386;28;20036;-86
2022/07/26 09:14:42;;;;;;;0.05;0.05;;;18.70;99.90;;;;;;5055470;28;20048;-86
2022/07/26 09:17:08;;;;;;;0.00;0.00;;;18.70;99.90;;;;;;5038821;28;20131;-87
2022/07/26 09:19:34;;;;;;;0.10;0.10;;;18.90;99.90;;;;;;5022240;28;20037;-87
2022/07/26 09:22:13;;;;;;;3.20;0.28;;;19.20;99.90;;;;;;5039174;28;20109;-87
2022/07/26 09:24:44;;;;;;;0.10;0.10;;;19.40;99.90;;;;;;5055527;28;20036;-87
2022/07/26 09:27:15;;;;;;;0.08;0.08;;;19.80;99.90;;;;;;5038732;28;20394;-87
2022/07/26 09:29:52;;;;;;;0.85;0.85;;;20.10;99.90;;;;;;5055318;28;20048;-87
2022/07/26 09:32:19;;;;;;;0.00;0.00;;;20.50;99.90;;;;;;5038999;28;20048;-87
2022/07/26 09:34:55;;;;;;;0.10;0.10;;;20.70;99.90;;;;;;5061519;28;20066;-87
2022/07/26 09:37:42;;;;;;;0.10;0.10;;;20.80;99.90;;;;;;5045692;28;20052;-88
2022/07/26 09:40:12;;;;;;;0.00;0.00;;;22.10;99.90;;;;;;5062036;28;20048;-88
2022/07/26 09:42:53;;;;;;;0.30;0.30;;;23.90;99.90;;;;;;5044909;28;20509;-88
2022/07/26 09:45:19;;;;;;;0.10;0.10;;;26.60;98.40;;;;;;5061772;28;20051;-87
2022/07/26 09:47:44;;;;;;;0.10;0.10;;;27.30;96.60;;;;;;5045087;28;20048;-88
2022/07/26 09:50:16;;;;;;;0.08;0.08;;;28.20;94.90;;;;;;5045055;28;20036;-88
2022/07/26 09:52:59;;;;;;;0.10;0.10;;;28.30;92.80;;;;;;5061645;28;20124;-87
2022/07/26 09:55:25;;;;;;;1.55;0.95;;;28.60;92.10;;;;;;5061620;28;20114;-85
2022/07/26 09:57:51;;;;;;;0.08;0.08;;;28.50;91.40;;;;;;5061961;28;20048;-85
2022/07/26 10:00:17;;;;;;;1.17;1.05;;;28.50;91.60;;;;;;5060910;28;20040;-84
2022/07/26 10:02:43;;;;;;;0.10;0.10;;;28.00;89.90;;;;;;5061391;28;20090;-84
2022/07/26 10:05:08;;;;;;;0.15;0.15;;;27.60;89.50;;;;;;5044788;28;20040;-84
2022/07/26 10:07:35;;;;;;;0.00;0.00;;;27.70;88.30;;;;;;5061440;28;20052;-84
2022/07/26 10:10:07;;;;;;;0.00;0.00;;;27.80;89.90;;;;;;5045209;28;20101;-84
2022/07/26 10:12:33;;;;;;;0.10;0.10;;;27.50;90.70;;;;;;5061550;28;20533;-84
2022/07/26 10:14:59;;;;;;;0.25;0.25;;;27.90;90.20;;;;;;5061460;28;20494;-85
2022/07/26 10:17:28;;;;;;;0.47;0.47;;;27.40;87.50;;;;;;5044800;28;20059;-84
2022/07/26 10:20:00;;;;;;;0.10;0.10;;;27.20;88.10;;;;;;5061799;28;20102;-84
2022/07/26 10:22:40;;;;;;;0.10;0.10;;;27.10;86.00;;;;;;5061786;28;20051;-84
2022/07/26 10:25:18;;;;;;;0.28;0.28;;;27.50;87.70;;;;;;5061360;28;20045;-85
2022/07/26 10:27:49;;;;;;;0.10;0.10;;;28.90;88.20;;;;;;5061974;28;20033;-88
2022/07/26 10:30:18;;;;;;;0.00;0.00;;;29.40;84.40;;;;;;5061415;28;20044;-88
2022/07/26 10:32:55;;;;;;;0.00;0.00;;;29.60;85.10;;;;;;5061155;28;20044;-88
2022/07/26 10:35:42;;;;;;;0.10;0.10;;;29.90;83.40;;;;;;5061318;28;20040;-88
2022/07/26 10:38:13;;;;;;;0.52;0.15;;;29.50;80.40;;;;;;5061466;28;20040;-88
2022/07/26 10:40:59;;;;;;;1.08;0.17;;;29.30;81.10;;;;;;5061554;28;20083;-88
2022/07/26 10:43:25;;;;;;;3.22;0.52;;;29.20;80.50;;;;;;5061361;28;20044;-85
2022/07/26 10:46:19;;;;;;;0.47;0.38;;;29.10;80.70;;;;;;5058320;28;20044;-85
2022/07/26 10:49:00;;;;;;;0.15;0.15;;;28.70;80.70;;;;;;5058194;28;20036;-85
2022/07/26 10:51:30;;;;;;;0.10;0.10;;;28.90;79.90;;;;;;5057889;28;20036;-85
2022/07/26 10:54:01;;;;;;;0.22;0.22;;;29.00;80.10;;;;;;5041487;28;20037;-85
2022/07/26 10:56:28;;;;;;;0.15;0.15;;;28.80;78.30;;;;;;5057833;28;20037;-85
2022/07/26 10:58:54;;;;;;;0.20;0.20;;;28.40;78.20;;;;;;5041397;28;20059;-85
2022/07/26 11:01:20;;;;;;;0.10;0.10;;;28.20;79.60;;;;;;5039911;28;20037;-85
2022/07/26 11:03:45;;;;;;;0.10;0.10;;;28.60;79.10;;;;;;5057745;28;20075;-85
2022/07/26 11:06:18;;;;;;;0.00;0.00;;;28.60;77.60;;;;;;5041025;28;20080;-85
2022/07/26 11:08:46;;;;;;;0.08;0.08;;;28.30;75.90;;;;;;5041125;28;20032;-85
2022/07/26 11:11:12;;;;;;;0.00;0.00;;;27.80;78.70;;;;;;5040913;28;20045;-85
2022/07/26 11:13:39;;;;;;;2.00;0.30;;;27.10;78.40;;;;;;5041258;28;20048;-85
2022/07/26 11:16:08;;;;;;;0.10;0.10;;;26.50;80.00;;;;;;5057430;28;20051;-84
2022/07/26 11:18:35;;;;;;;2.17;0.90;;;26.00;80.60;;;;;;5057377;28;20080;-83
2022/07/26 11:21:13;;;;;;;0.05;0.05;;;25.60;81.10;;;;;;5057402;28;20044;-83
2022/07/26 11:23:43;;;;;;;0.52;0.52;;;25.10;82.20;;;;;;5040771;28;20044;-83
2022/07/26 11:26:17;;;;;;;0.10;0.10;;;24.70;81.30;;;;;;5051791;28;20037;-83
2022/07/26 11:28:50;;;;;;;0.30;0.30;;;24.40;82.90;;;;;;5020986;28;20075;-83
2022/07/26 11:31:16;;;;;;;0.10;0.10;;;24.00;83.60;;;;;;5033744;28;20587;-83
2022/07/26 11:33:47;;;;;;;0.10;0.10;;;23.70;83.70;;;;;;5050735;28;20045;-88
2022/07/26 11:36:14;;;;;;;0.30;0.30;;;23.60;84.90;;;;;;5050627;28;20077;-88
2022/07/26 11:38:47;;;;;;;0.10;0.10;;;23.50;84.90;;;;;;5034207;28;20084;-88
2022/07/26 11:41:17;;;;;;;0.30;0.30;;;23.50;85.90;;;;;;5017397;28;20052;-88
2022/07/26 11:43:43;;;;;;;0.00;0.00;;;23.50;85.10;;;;;;5017316;28;20071;-89
2022/07/26 11:46:09;;;;;;;0.10;0.10;;;23.50;85.60;;;;;;5000875;28;20046;-88
2022/07/26 11:48:34;;;;;;;0.68;0.68;;;23.50;85.10;;;;;;5033757;28;20049;-88
2022/07/26 11:51:11;;;;;;;0.10;0.10;;;23.80;85.50;;;;;;5033874;28;20041;-85
2022/07/26 11:53:38;;;;;;;3.72;0.75;;;24.30;84.60;;;;;;5017439;28;20383;-85
2022/07/26 11:56:19;;;;;;;0.10;0.10;;;24.70;84.10;;;;;;5051582;28;20041;-85
2022/07/26 11:58:47;;;;;;;0.10;0.10;;;25.00;83.20;;;;;;5037301;28;20082;-85
2022/07/26 12:01:15;;;;;;;0.10;0.10;;;25.10;83.10;;;;;;5052153;28;20040;-85
2022/07/26 12:03:43;;;;;;;0.35;0.20;;;25.10;83.00;;;;;;5053539;28;20052;-85
2022/07/26 12:06:11;;;;;;;0.08;0.08;;;25.20;84.00;;;;;;5053156;28;20045;-85
2022/07/26 12:08:45;;;;;;;3.10;1.10;;;25.40;83.60;;;;;;5053202;28;20037;-85
2022/07/26 12:11:11;;;;;;;0.00;0.00;;;25.40;83.20;;;;;;5053135;28;20037;-82
2022/07/26 12:13:55;;;;;;;0.10;0.10;;;25.20;83.80;;;;;;5036584;28;20399;-82
2022/07/26 12:16:36;;;;;;;0.10;0.10;;;25.30;84.30;;;;;;5033121;28;20042;-83
2022/07/26 12:19:03;;;;;;;0.00;0.00;;;25.80;83.60;;;;;;5016619;28;20124;-83
2022/07/26 12:21:40;;;;;;;0.25;0.25;;;26.70;82.00;;;;;;5033298;28;20431;-83
2022/07/26 12:24:06;;;;;;;0.45;0.45;;;27.30;81.20;;;;;;5033121;28;20088;-86
2022/07/26 12:26:32;;;;;;;0.10;0.10;;;27.40;80.50;;;;;;5025036;28;20376;-85
2022/07/26 12:29:23;;;;;;;0.10;0.10;;;26.90;80.30;;;;;;5053526;28;20502;-86
2022/07/26 12:31:46;;;;;;;0.10;0.10;;;26.10;80.90;;;;;;5056331;28;20059;-85
2022/07/26 12:34:18;;;;;;;0.20;0.13;;;25.10;82.00;;;;;;5055966;28;20043;-86
2022/07/26 12:36:43;;;;;;;0.00;0.00;;;24.30;83.80;;;;;;5039318;28;20044;-86
2022/07/26 12:39:19;;;;;;;0.47;0.40;;;24.00;84.90;;;;;;5039459;28;20037;-85
2022/07/26 12:41:46;;;;;;;0.28;0.28;;;23.90;85.40;;;;;;5039280;28;20059;-81
2022/07/26 12:44:12;;;;;;;0.30;0.30;;;24.00;87.30;;;;;;5055858;28;20097;-81
2022/07/26 12:46:37;;;;;;;0.00;0.00;;;24.20;87.90;;;;;;5039199;28;20040;-81
2022/07/26 12:49:03;;;;;;;0.52;0.52;;;25.00;85.40;;;;;;5056399;28;20037;-81
2022/07/26 12:51:29;;;;;;;0.47;0.20;;;26.30;83.80;;;;;;5055966;28;20082;-81
2022/07/26 12:53:55;;;;;;;0.40;0.40;;;27.50;82.90;;;;;;5055939;28;20483;-81